Time;durP1;ratioP1;P1;durP2;ratioP2;P2;SDS_P1;SDS_P2;PMS_P1;PMS_P2;Temp;Humidity;BMP_temperature;BMP_pressure;BME280_temperature;BME280_humidity;BME280_pressure;Samples;Min_cycle;Max_cycle;Signal;HPM_P1;HPM_P2
2023/01/07 00:01:43;;;;;;;0.10;0.10;;;8.90;99.90;12.80;163505.00;;;;5005711;28;20207;-76
2023/01/07 00:04:15;;;;;;;0.10;0.10;;;8.90;99.90;12.80;163505.00;;;;5018868;28;20544;-75
2023/01/07 00:06:46;;;;;;;0.10;0.10;;;8.90;99.90;12.80;163505.00;;;;4995833;28;20208;-76
2023/01/07 00:09:16;;;;;;;0.10;0.10;;;8.90;99.90;12.80;163505.00;;;;4983747;28;20305;-77
2023/01/07 00:11:45;;;;;;;0.10;0.10;;;8.80;99.90;12.80;163505.00;;;;5008888;28;20187;-77
2023/01/07 00:14:14;;;;;;;0.10;0.10;;;8.80;99.90;12.80;163505.00;;;;5007077;28;20196;-77
2023/01/07 00:16:43;;;;;;;0.00;0.00;;;8.80;99.90;12.80;163505.00;;;;5008652;28;20203;-76
2023/01/07 00:19:15;;;;;;;0.10;0.10;;;8.80;99.90;12.80;163505.00;;;;5008501;28;20600;-76
2023/01/07 00:21:43;;;;;;;0.10;0.10;;;8.80;99.90;12.80;163505.00;;;;4993929;28;20230;-76
2023/01/07 00:24:12;;;;;;;0.10;0.10;;;8.80;99.90;12.80;163505.00;;;;5014900;28;20203;-76
2023/01/07 00:26:40;;;;;;;0.10;0.10;;;8.80;99.90;12.80;163505.00;;;;5011496;28;20250;-75
2023/01/07 00:29:09;;;;;;;0.10;0.10;;;8.80;99.90;12.80;163505.00;;;;5008492;28;20623;-75
2023/01/07 00:31:40;;;;;;;0.10;0.10;;;8.90;99.90;12.80;163505.00;;;;5003122;28;20207;-75
2023/01/07 00:34:09;;;;;;;0.10;0.10;;;8.80;99.90;12.80;163505.00;;;;5004841;28;20616;-73
2023/01/07 00:36:42;;;;;;;0.10;0.10;;;8.90;99.90;12.80;163505.00;;;;4989583;28;20197;-74
2023/01/07 00:39:14;;;;;;;0.10;0.10;;;8.80;99.90;12.80;163505.00;;;;4988807;28;20192;-73
2023/01/07 00:42:52;;;;;;;0.10;0.10;;;8.80;99.90;12.80;163505.00;;;;4999002;28;20204;-74
2023/01/07 00:44:34;;;;;;;0.10;0.10;;;8.80;99.90;12.80;163505.00;;;;4988351;28;20564;-74
2023/01/07 00:47:02;;;;;;;0.10;0.10;;;8.80;99.90;12.80;163505.00;;;;5010385;28;20249;-75
2023/01/07 00:49:30;;;;;;;0.10;0.10;;;8.80;99.90;12.80;163505.00;;;;4990351;28;20554;-74
2023/01/07 00:51:59;;;;;;;0.10;0.10;;;8.90;99.90;12.80;163505.00;;;;5006878;28;20214;-76
2023/01/07 00:54:28;;;;;;;0.00;0.00;;;8.90;99.90;12.80;163505.00;;;;5002410;28;20660;-75
2023/01/07 00:56:56;;;;;;;0.10;0.10;;;8.90;99.90;12.80;163505.00;;;;5004483;28;20223;-75
2023/01/07 00:59:24;;;;;;;0.08;0.08;;;8.90;99.90;12.80;163505.00;;;;5002784;28;20217;-75
2023/01/07 01:01:51;;;;;;;0.10;0.10;;;8.90;99.90;12.80;163505.00;;;;5014301;28;20192;-75
2023/01/07 01:04:20;;;;;;;0.10;0.10;;;8.90;99.90;12.80;163505.00;;;;4985063;28;20258;-75
2023/01/07 01:06:48;;;;;;;0.10;0.10;;;8.80;99.90;12.80;163505.00;;;;4986813;28;20224;-75
2023/01/07 01:09:19;;;;;;;0.10;0.10;;;8.90;99.90;12.80;163505.00;;;;5008326;28;20204;-74
2023/01/07 01:11:47;;;;;;;0.10;0.10;;;8.80;99.90;12.80;163505.00;;;;4981085;28;20200;-75
2023/01/07 01:14:15;;;;;;;0.10;0.10;;;8.80;99.90;12.80;163505.00;;;;4990843;28;20642;-75
2023/01/07 01:16:45;;;;;;;0.10;0.10;;;8.70;99.90;12.80;163505.00;;;;5008267;28;20235;-75
2023/01/07 01:19:13;;;;;;;0.10;0.10;;;8.80;99.90;12.80;163505.00;;;;4988092;28;20211;-73
2023/01/07 01:21:41;;;;;;;0.10;0.10;;;8.80;99.90;12.80;163505.00;;;;4992218;28;20571;-74
2023/01/07 01:24:10;;;;;;;0.10;0.10;;;8.80;99.90;12.80;163505.00;;;;5000346;28;20243;-75
2023/01/07 01:26:39;;;;;;;0.10;0.10;;;8.80;99.90;12.80;163505.00;;;;4986255;28;20196;-75
2023/01/07 01:29:07;;;;;;;0.10;0.10;;;8.90;99.90;12.80;163505.00;;;;5008434;28;20207;-77
2023/01/07 01:31:35;;;;;;;0.10;0.10;;;8.80;99.90;12.80;163505.00;;;;4992242;28;20238;-78
2023/01/07 01:34:04;;;;;;;0.10;0.10;;;8.80;99.90;12.80;163505.00;;;;4991100;28;20211;-75
2023/01/07 01:36:34;;;;;;;0.10;0.10;;;8.70;99.90;12.80;163505.00;;;;4985645;28;20668;-76
2023/01/07 01:39:03;;;;;;;0.10;0.10;;;8.70;99.90;12.80;163505.00;;;;5013872;28;20250;-75
2023/01/07 01:41:34;;;;;;;0.10;0.10;;;8.70;99.90;12.80;163505.00;;;;4987680;28;20287;-75
2023/01/07 01:44:41;;;;;;;0.10;0.10;;;8.70;99.90;12.80;163505.00;;;;4982444;28;20258;-75
2023/01/07 01:47:22;;;;;;;0.10;0.10;;;8.70;99.90;12.80;163505.00;;;;4999084;28;20236;-76
2023/01/07 01:49:59;;;;;;;0.10;0.10;;;8.70;99.90;12.80;163505.00;;;;5005800;28;20200;-77
2023/01/07 01:52:37;;;;;;;0.10;0.10;;;8.70;99.90;12.80;163505.00;;;;4997479;28;20199;-76
2023/01/07 01:55:09;;;;;;;0.10;0.10;;;8.70;99.90;12.80;163505.00;;;;4985348;28;20219;-76
2023/01/07 01:57:38;;;;;;;0.10;0.10;;;8.70;99.90;12.80;163505.00;;;;4995228;28;20585;-76
2023/01/07 02:00:11;;;;;;;0.10;0.10;;;8.70;99.90;12.80;163505.00;;;;5007227;28;20680;-77
2023/01/07 02:02:53;;;;;;;0.10;0.10;;;8.80;99.90;12.80;163505.00;;;;4984465;28;20214;-77
2023/01/07 02:05:21;;;;;;;0.10;0.10;;;8.80;99.90;12.80;163505.00;;;;5002441;28;20228;-75
2023/01/07 02:07:49;;;;;;;0.10;0.10;;;8.70;99.90;12.80;163505.00;;;;4989816;28;20226;-76
2023/01/07 02:10:21;;;;;;;0.10;0.10;;;8.80;99.90;12.80;163505.00;;;;4993203;28;20231;-77
2023/01/07 02:13:19;;;;;;;0.08;0.08;;;8.80;99.90;12.80;163505.00;;;;4991831;28;20207;-76
2023/01/07 02:15:59;;;;;;;0.08;0.08;;;8.80;99.90;12.80;163505.00;;;;5001251;28;20201;-76
2023/01/07 02:18:49;;;;;;;0.10;0.10;;;8.80;99.90;12.80;163505.00;;;;4996867;28;20281;-75
2023/01/07 02:21:38;;;;;;;0.10;0.10;;;8.90;99.90;12.80;163505.00;;;;4992867;28;20215;-75
2023/01/07 02:24:59;;;;;;;0.10;0.10;;;8.90;99.90;12.80;163505.00;;;;4987184;28;20290;-72
2023/01/07 02:27:55;;;;;;;0.10;0.10;;;8.80;99.90;12.80;163505.00;;;;4925146;29;20226;-75
2023/01/07 02:31:11;;;;;;;0.10;0.10;;;8.80;99.90;12.80;163505.00;;;;4996505;28;20560;-76
2023/01/07 02:33:53;;;;;;;0.10;0.10;;;8.80;99.90;12.80;163505.00;;;;5015282;28;20207;-78
2023/01/07 02:36:48;;;;;;;0.10;0.10;;;8.80;99.90;12.80;163505.00;;;;4990954;28;20210;-74
2023/01/07 02:39:47;;;;;;;0.10;0.10;;;8.80;99.90;12.80;163505.00;;;;5015595;28;20196;-74
2023/01/07 02:42:25;;;;;;;0.10;0.10;;;8.80;99.90;12.80;163505.00;;;;5015206;28;20204;-75
2023/01/07 02:45:04;;;;;;;0.10;0.10;;;8.80;99.90;12.80;163505.00;;;;4996674;28;20215;-79
2023/01/07 02:47:38;;;;;;;0.10;0.10;;;8.80;99.90;12.80;163505.00;;;;5000520;28;20410;-73
2023/01/07 02:50:09;;;;;;;0.10;0.10;;;8.80;99.90;12.80;163505.00;;;;4993580;28;20289;-73
2023/01/07 02:52:37;;;;;;;0.10;0.10;;;8.80;99.90;12.80;163505.00;;;;4995411;28;20188;-73
2023/01/07 02:55:11;;;;;;;0.10;0.10;;;8.90;99.90;12.80;163505.00;;;;5012547;28;20216;-73
2023/01/07 02:58:17;;;;;;;0.10;0.10;;;8.80;99.90;12.80;163505.00;;;;5007574;28;20218;-73
2023/01/07 03:01:20;;;;;;;0.10;0.10;;;8.80;99.90;12.80;163505.00;;;;5007457;28;20195;-74
2023/01/07 03:04:25;;;;;;;0.10;0.10;;;8.80;99.90;12.80;163505.00;;;;4989939;28;20214;-74
2023/01/07 03:07:19;;;;;;;0.10;0.10;;;8.80;99.90;12.80;163505.00;;;;5001680;28;20216;-75
2023/01/07 03:10:00;;;;;;;0.10;0.10;;;8.80;99.90;12.80;163505.00;;;;4991078;28;20223;-74
2023/01/07 03:12:34;;;;;;;0.10;0.10;;;8.80;99.90;12.80;163505.00;;;;5003341;28;20192;-76
2023/01/07 03:15:11;;;;;;;0.10;0.10;;;8.80;99.90;12.80;163505.00;;;;5008883;28;20199;-77
2023/01/07 03:17:48;;;;;;;0.10;0.10;;;8.80;99.90;12.80;163505.00;;;;4995990;28;20277;-74
2023/01/07 03:20:19;;;;;;;0.10;0.10;;;8.80;99.90;12.80;163505.00;;;;4995684;28;20226;-74
2023/01/07 03:22:50;;;;;;;0.10;0.10;;;8.80;99.90;12.80;163505.00;;;;4989337;28;20196;-74
2023/01/07 03:25:21;;;;;;;0.10;0.10;;;8.80;99.90;12.80;163505.00;;;;4995628;28;20216;-74
2023/01/07 03:27:53;;;;;;;0.10;0.10;;;8.80;99.90;12.80;163505.00;;;;4992430;28;20209;-78
2023/01/07 03:30:24;;;;;;;0.10;0.10;;;8.80;99.90;12.80;163505.00;;;;4977775;28;20266;-81
2023/01/07 03:33:01;;;;;;;0.10;0.10;;;8.80;99.90;12.80;163505.00;;;;5000571;28;20231;-79
2023/01/07 03:35:34;;;;;;;0.10;0.10;;;8.80;99.90;12.80;163505.00;;;;4984287;28;20676;-76
2023/01/07 03:38:06;;;;;;;0.10;0.10;;;8.80;99.90;12.80;163505.00;;;;5005279;28;20238;-78
2023/01/07 03:40:36;;;;;;;0.10;0.10;;;8.90;99.90;12.80;163505.00;;;;4989330;28;20203;-77
2023/01/07 03:43:03;;;;;;;0.10;0.10;;;8.90;99.90;12.80;163505.00;;;;5010319;28;20560;-76
2023/01/07 03:45:31;;;;;;;0.10;0.10;;;8.90;99.90;12.80;163505.00;;;;5002816;28;20490;-75
2023/01/07 03:48:00;;;;;;;0.10;0.10;;;8.80;99.90;12.80;163505.00;;;;4993271;28;20277;-74
2023/01/07 03:50:35;;;;;;;0.10;0.10;;;8.80;99.90;12.80;163505.00;;;;4994633;28;20612;-75
2023/01/07 03:53:05;;;;;;;0.10;0.10;;;8.90;99.90;12.80;163505.00;;;;4993720;28;20679;-76
2023/01/07 03:55:35;;;;;;;0.10;0.10;;;8.80;99.90;12.80;163505.00;;;;4982785;28;20633;-75
2023/01/07 03:58:03;;;;;;;0.10;0.10;;;8.80;99.90;12.80;163505.00;;;;4984045;28;20266;-79
2023/01/07 04:00:31;;;;;;;0.10;0.10;;;8.80;99.90;12.80;163505.00;;;;5004627;28;20185;-79
2023/01/07 04:03:10;;;;;;;0.10;0.10;;;8.90;99.90;12.80;163505.00;;;;4987561;28;20258;-76
2023/01/07 04:05:41;;;;;;;0.10;0.10;;;8.90;99.90;12.80;163505.00;;;;5007248;28;20215;-76
2023/01/07 04:08:12;;;;;;;0.10;0.10;;;8.80;99.90;12.80;163505.00;;;;4980579;28;20315;-75
2023/01/07 04:10:41;;;;;;;0.10;0.10;;;8.80;99.90;12.80;163505.00;;;;4986566;28;20203;-75
2023/01/07 04:13:09;;;;;;;0.10;0.10;;;8.80;99.90;12.80;163505.00;;;;4991106;28;20578;-74
2023/01/07 04:15:38;;;;;;;0.10;0.10;;;8.80;99.90;12.80;163505.00;;;;4994173;28;20227;-76
2023/01/07 04:18:06;;;;;;;0.10;0.10;;;8.80;99.90;12.80;163505.00;;;;4996701;28;20642;-76
2023/01/07 04:20:34;;;;;;;0.10;0.10;;;8.80;99.90;12.80;163505.00;;;;4999022;28;20208;-75
2023/01/07 04:23:01;;;;;;;0.10;0.10;;;8.80;99.90;12.80;163505.00;;;;5005012;28;20266;-75
2023/01/07 04:25:33;;;;;;;0.10;0.10;;;8.80;99.90;12.80;163505.00;;;;5007852;28;20212;-75
2023/01/07 04:28:04;;;;;;;0.10;0.10;;;8.80;99.90;12.80;163505.00;;;;4986915;28;20227;-75
2023/01/07 04:30:33;;;;;;;0.10;0.10;;;8.80;99.90;12.80;163505.00;;;;5001875;28;20204;-75
2023/01/07 04:33:01;;;;;;;0.10;0.10;;;8.80;99.90;12.80;163505.00;;;;4978307;28;20200;-75
2023/01/07 04:35:29;;;;;;;0.10;0.10;;;8.80;99.90;12.80;163505.00;;;;4997993;28;20383;-75
2023/01/07 04:37:58;;;;;;;0.10;0.10;;;8.80;99.90;12.80;163505.00;;;;4992839;28;20212;-74
2023/01/07 04:40:26;;;;;;;0.10;0.10;;;8.80;99.90;12.80;163505.00;;;;4989821;28;20201;-74
2023/01/07 04:42:56;;;;;;;0.10;0.10;;;8.80;99.90;12.80;163505.00;;;;4981982;28;20193;-77
2023/01/07 04:45:24;;;;;;;0.10;0.10;;;8.80;99.90;12.80;163505.00;;;;4985126;28;20259;-74
2023/01/07 04:47:55;;;;;;;0.10;0.10;;;8.70;99.90;12.80;163505.00;;;;5023519;23;20340;-73
2023/01/07 04:50:24;;;;;;;0.10;0.10;;;8.70;99.90;12.80;163505.00;;;;4967364;28;20192;-73
2023/01/07 04:52:52;;;;;;;0.10;0.10;;;8.70;99.90;12.80;163505.00;;;;4991609;28;20192;-73
2023/01/07 04:55:22;;;;;;;0.10;0.10;;;8.70;99.90;12.80;163505.00;;;;4970542;28;20256;-73
2023/01/07 04:57:50;;;;;;;0.10;0.10;;;8.70;99.90;12.80;163505.00;;;;4958985;28;20229;-73
2023/01/07 05:00:20;;;;;;;0.10;0.10;;;8.70;99.90;12.80;163505.00;;;;4949140;28;20763;-73
2023/01/07 05:02:50;;;;;;;0.10;0.10;;;8.70;99.90;12.80;163505.00;;;;4953740;28;20228;-73
2023/01/07 05:05:18;;;;;;;0.10;0.10;;;8.60;99.90;12.80;163505.00;;;;4954136;28;20312;-73
2023/01/07 05:07:47;;;;;;;0.10;0.10;;;8.60;99.90;12.80;163505.00;;;;4954431;28;20620;-73
2023/01/07 05:10:17;;;;;;;0.10;0.10;;;8.60;99.90;12.80;163505.00;;;;4961281;28;20685;-73
2023/01/07 05:12:45;;;;;;;0.10;0.10;;;8.60;99.90;12.80;163505.00;;;;4954785;28;20880;-74
2023/01/07 05:15:16;;;;;;;0.10;0.10;;;8.60;99.90;12.80;163505.00;;;;4955770;28;20777;-73
2023/01/07 05:17:45;;;;;;;0.10;0.10;;;8.60;99.90;12.80;163505.00;;;;4954335;28;20303;-73
2023/01/07 05:20:14;;;;;;;0.10;0.10;;;8.60;99.90;12.80;163505.00;;;;4954984;28;20286;-73
2023/01/07 05:22:42;;;;;;;0.10;0.10;;;8.60;99.90;12.80;163505.00;;;;4975362;28;20264;-73
2023/01/07 05:25:10;;;;;;;0.10;0.10;;;8.60;99.90;12.80;163505.00;;;;4955148;28;20306;-73
2023/01/07 05:27:38;;;;;;;0.10;0.10;;;8.60;99.90;12.80;163505.00;;;;4981750;28;20213;-73
2023/01/07 05:30:10;;;;;;;0.10;0.10;;;8.60;99.90;12.80;163505.00;;;;4956371;28;20212;-74
2023/01/07 05:32:38;;;;;;;0.10;0.10;;;8.60;99.90;12.80;163505.00;;;;4986403;28;20299;-74
2023/01/07 05:35:08;;;;;;;0.10;0.10;;;8.60;99.90;12.80;163505.00;;;;4956186;28;20212;-73
2023/01/07 05:37:36;;;;;;;0.10;0.10;;;8.50;99.90;12.80;163505.00;;;;4953608;28;20287;-73
2023/01/07 05:40:07;;;;;;;0.10;0.10;;;8.50;99.90;12.80;163505.00;;;;4955326;28;20263;-74
2023/01/07 05:42:36;;;;;;;0.10;0.10;;;8.50;99.90;12.80;163505.00;;;;4971352;28;20220;-74
2023/01/07 05:45:06;;;;;;;0.10;0.10;;;8.60;99.90;12.80;163505.00;;;;4972045;28;20329;-74
2023/01/07 05:47:34;;;;;;;0.10;0.10;;;8.60;99.90;12.80;163505.00;;;;4968550;28;20597;-74
2023/01/07 05:50:02;;;;;;;0.10;0.10;;;8.60;99.90;12.80;163505.00;;;;4969741;28;20271;-74
2023/01/07 05:52:31;;;;;;;0.10;0.10;;;8.60;99.90;12.80;163505.00;;;;4972908;28;20267;-74
2023/01/07 05:54:59;;;;;;;0.10;0.10;;;8.60;99.90;12.80;163505.00;;;;4968430;28;20193;-74
2023/01/07 05:57:27;;;;;;;0.10;0.10;;;8.60;99.90;12.80;163505.00;;;;4971719;28;20645;-74
2023/01/07 05:59:54;;;;;;;0.08;0.08;;;8.60;99.90;12.80;163505.00;;;;4972128;28;20624;-74
2023/01/07 06:02:22;;;;;;;0.10;0.10;;;8.60;99.90;12.80;163505.00;;;;4971874;28;20233;-74
2023/01/07 06:04:50;;;;;;;0.10;0.10;;;8.60;99.90;12.80;163505.00;;;;4965400;28;20280;-74
2023/01/07 06:07:18;;;;;;;0.10;0.10;;;8.60;99.90;12.80;163505.00;;;;4967416;28;20232;-74
2023/01/07 06:09:48;;;;;;;0.10;0.10;;;8.60;99.90;12.80;163505.00;;;;4968969;28;20752;-73
2023/01/07 06:12:16;;;;;;;0.10;0.10;;;8.60;99.90;12.80;163505.00;;;;4970074;28;20678;-74
2023/01/07 06:14:43;;;;;;;0.10;0.10;;;8.60;99.90;12.80;163505.00;;;;4974684;28;20239;-74
2023/01/07 06:17:11;;;;;;;0.10;0.10;;;8.60;99.90;12.80;163505.00;;;;4970050;28;20530;-74
2023/01/07 06:19:39;;;;;;;0.10;0.10;;;8.60;99.90;12.80;163505.00;;;;4974546;28;20201;-74
2023/01/07 06:22:07;;;;;;;0.10;0.10;;;8.60;99.90;12.80;163505.00;;;;4976697;28;20207;-74
2023/01/07 06:24:35;;;;;;;0.10;0.10;;;8.50;99.90;12.80;163505.00;;;;4976392;28;20662;-75
2023/01/07 06:27:05;;;;;;;0.10;0.10;;;8.50;99.90;12.80;163505.00;;;;4971832;28;20326;-75
2023/01/07 06:29:33;;;;;;;0.10;0.10;;;8.60;99.90;12.80;163505.00;;;;4974353;28;20198;-75
2023/01/07 06:32:00;;;;;;;0.10;0.10;;;8.60;99.90;12.80;163505.00;;;;4957122;28;20283;-75
2023/01/07 06:34:28;;;;;;;0.10;0.10;;;8.60;99.90;12.80;163505.00;;;;4976907;28;20192;-74
2023/01/07 06:36:56;;;;;;;0.10;0.10;;;8.60;99.90;12.80;163505.00;;;;4972883;28;20232;-74
2023/01/07 06:39:24;;;;;;;0.10;0.10;;;8.60;99.90;12.80;163505.00;;;;4973302;28;20556;-74
2023/01/07 06:41:52;;;;;;;0.10;0.10;;;8.60;99.90;12.80;163505.00;;;;4969572;28;20638;-74
2023/01/07 06:44:21;;;;;;;0.10;0.10;;;8.70;99.90;12.80;163505.00;;;;4972142;28;20670;-74
2023/01/07 06:46:49;;;;;;;0.10;0.10;;;8.70;99.90;12.80;163505.00;;;;4970891;28;20229;-74
2023/01/07 06:49:17;;;;;;;0.10;0.10;;;8.60;99.90;12.80;163505.00;;;;4976167;28;20572;-74
2023/01/07 06:51:45;;;;;;;0.10;0.10;;;8.60;99.90;12.80;163505.00;;;;4977974;28;20197;-74
2023/01/07 06:54:13;;;;;;;0.10;0.10;;;8.70;99.90;12.80;163505.00;;;;4970511;28;20216;-73
2023/01/07 06:56:41;;;;;;;0.10;0.10;;;8.60;99.90;12.80;163505.00;;;;4963286;28;20224;-72
2023/01/07 06:59:10;;;;;;;0.10;0.10;;;8.70;99.90;12.80;163505.00;;;;4973718;28;20225;-73
2023/01/07 07:01:39;;;;;;;0.10;0.10;;;8.70;99.90;12.80;163505.00;;;;4973589;28;20201;-73
2023/01/07 07:04:07;;;;;;;0.10;0.10;;;8.70;99.90;12.80;163505.00;;;;4973872;28;20211;-72
2023/01/07 07:06:35;;;;;;;0.10;0.10;;;8.70;99.90;12.80;163505.00;;;;4978012;28;20208;-73
2023/01/07 07:09:03;;;;;;;0.10;0.10;;;8.70;99.90;12.80;163505.00;;;;4975356;28;20274;-72
2023/01/07 07:11:31;;;;;;;0.10;0.10;;;8.70;99.90;12.80;163505.00;;;;4972756;28;20433;-72
2023/01/07 07:13:59;;;;;;;0.10;0.10;;;8.70;99.90;12.80;163505.00;;;;4962542;28;20280;-73
2023/01/07 07:16:27;;;;;;;0.10;0.10;;;8.70;99.90;12.80;163505.00;;;;4973989;28;20228;-73
2023/01/07 07:18:59;;;;;;;0.10;0.10;;;8.70;99.90;12.80;163505.00;;;;4970949;28;20223;-73
2023/01/07 07:21:27;;;;;;;0.10;0.10;;;8.70;99.90;12.80;163505.00;;;;4970242;28;20221;-73
2023/01/07 07:23:55;;;;;;;0.10;0.10;;;8.70;99.90;12.80;163505.00;;;;4969562;28;20280;-73
2023/01/07 07:26:22;;;;;;;0.10;0.10;;;8.60;99.90;12.80;163505.00;;;;4970789;28;20221;-72
2023/01/07 07:28:50;;;;;;;0.10;0.10;;;8.60;99.90;12.80;163505.00;;;;4968926;28;20221;-72
2023/01/07 07:31:18;;;;;;;0.10;0.10;;;8.60;99.90;12.80;163505.00;;;;4968944;28;20197;-72
2023/01/07 07:33:46;;;;;;;0.10;0.10;;;8.60;99.90;12.80;163505.00;;;;4969954;28;20248;-72
2023/01/07 07:36:15;;;;;;;0.10;0.10;;;8.60;99.90;12.80;163505.00;;;;4965324;28;20255;-72
2023/01/07 07:38:43;;;;;;;0.10;0.10;;;8.60;99.90;12.80;163505.00;;;;4966481;28;20340;-72
2023/01/07 07:41:11;;;;;;;0.10;0.10;;;8.60;99.90;12.80;163505.00;;;;4972270;28;20689;-72
2023/01/07 07:43:39;;;;;;;0.10;0.10;;;8.50;99.90;12.80;163505.00;;;;4971997;28;20232;-72
2023/01/07 07:46:07;;;;;;;0.10;0.10;;;8.50;99.90;12.80;163505.00;;;;4974792;28;20232;-72
2023/01/07 07:48:35;;;;;;;0.10;0.10;;;8.50;99.90;12.80;163505.00;;;;4976936;28;20244;-73
2023/01/07 07:51:03;;;;;;;0.10;0.10;;;8.60;99.90;12.80;163505.00;;;;4967507;28;20260;-72
2023/01/07 07:53:33;;;;;;;0.10;0.10;;;8.60;99.90;12.80;163505.00;;;;4972949;28;20204;-72
2023/01/07 07:56:01;;;;;;;0.10;0.10;;;8.60;99.90;12.80;163505.00;;;;4972962;28;20208;-73
2023/01/07 07:58:28;;;;;;;0.10;0.10;;;8.60;99.90;12.80;163505.00;;;;4973157;28;20216;-72
2023/01/07 08:00:56;;;;;;;0.10;0.10;;;8.60;99.90;12.80;163505.00;;;;4972909;28;20450;-72
2023/01/07 08:03:24;;;;;;;0.05;0.05;;;8.70;99.90;12.80;163505.00;;;;4973518;28;20201;-72
2023/01/07 08:05:52;;;;;;;0.10;0.10;;;8.70;99.90;12.80;163505.00;;;;4968020;28;22143;-73
2023/01/07 08:08:20;;;;;;;0.10;0.10;;;8.60;99.90;12.80;163505.00;;;;4965348;28;20228;-72
2023/01/07 08:10:50;;;;;;;0.10;0.10;;;8.60;99.90;12.80;163505.00;;;;4971490;28;20283;-72
2023/01/07 08:13:18;;;;;;;0.10;0.10;;;8.60;99.90;12.80;163505.00;;;;4977085;28;20252;-72
2023/01/07 08:15:47;;;;;;;0.10;0.10;;;8.60;99.90;12.80;163505.00;;;;4976982;28;20251;-72
2023/01/07 08:18:15;;;;;;;0.10;0.10;;;8.70;99.90;12.80;163505.00;;;;4981626;28;20223;-72
2023/01/07 08:20:43;;;;;;;0.10;0.10;;;8.70;99.90;12.80;163505.00;;;;4981245;28;20224;-72
2023/01/07 08:23:10;;;;;;;0.10;0.10;;;8.70;99.90;12.80;163505.00;;;;4978873;28;20279;-74
2023/01/07 08:25:38;;;;;;;0.10;0.10;;;8.70;99.90;12.80;163505.00;;;;4968209;28;20190;-74
2023/01/07 08:28:10;;;;;;;0.10;0.10;;;8.70;99.90;12.80;163505.00;;;;4970769;28;20232;-74
2023/01/07 08:30:39;;;;;;;0.10;0.10;;;8.70;99.90;12.80;163505.00;;;;4969358;28;20560;-74
2023/01/07 08:33:08;;;;;;;0.10;0.10;;;8.70;99.90;12.80;163505.00;;;;4949908;28;20198;-72
2023/01/07 08:35:36;;;;;;;0.10;0.10;;;8.70;99.90;12.80;163505.00;;;;4970391;28;20204;-74
2023/01/07 08:38:07;;;;;;;0.10;0.10;;;8.70;99.90;12.80;163505.00;;;;4971557;28;20292;-74
2023/01/07 08:40:36;;;;;;;0.10;0.10;;;8.70;99.90;12.80;163505.00;;;;4972211;28;20205;-74
2023/01/07 08:43:08;;;;;;;0.10;0.10;;;8.80;99.90;12.80;163505.00;;;;4966093;28;20205;-74
2023/01/07 08:45:36;;;;;;;0.10;0.10;;;8.80;99.90;12.80;163505.00;;;;4972350;28;20193;-72
2023/01/07 08:48:05;;;;;;;0.10;0.10;;;8.80;99.90;12.80;163505.00;;;;4954049;28;20504;-72
2023/01/07 08:50:34;;;;;;;0.10;0.10;;;8.80;99.90;12.80;163505.00;;;;4972158;28;20208;-72
2023/01/07 08:53:02;;;;;;;0.10;0.10;;;8.80;99.90;12.80;163505.00;;;;4969972;28;20678;-74
2023/01/07 08:55:30;;;;;;;0.10;0.10;;;8.80;99.90;12.80;163505.00;;;;4969089;28;20197;-72
2023/01/07 08:57:58;;;;;;;0.10;0.10;;;8.80;99.90;12.80;163505.00;;;;4969931;28;20221;-74
2023/01/07 09:00:27;;;;;;;0.10;0.10;;;8.80;99.90;12.80;163505.00;;;;4971964;28;20201;-74
2023/01/07 09:02:55;;;;;;;0.10;0.10;;;8.90;99.90;12.80;163505.00;;;;4971353;28;20256;-74
2023/01/07 09:05:23;;;;;;;0.10;0.10;;;8.90;99.90;12.80;163505.00;;;;4971742;28;20577;-75
2023/01/07 09:07:53;;;;;;;0.10;0.10;;;8.90;99.90;12.80;163505.00;;;;4971459;28;20224;-74
2023/01/07 09:10:21;;;;;;;0.10;0.10;;;8.90;99.90;12.80;163505.00;;;;4969995;28;20263;-75
2023/01/07 09:12:50;;;;;;;0.10;0.10;;;8.90;99.90;12.80;163505.00;;;;4971908;28;20201;-73
2023/01/07 09:15:18;;;;;;;0.10;0.10;;;8.90;99.90;12.80;163505.00;;;;4971754;28;20201;-73
2023/01/07 09:17:47;;;;;;;0.10;0.10;;;8.90;99.90;12.80;163505.00;;;;4969397;28;20567;-72
2023/01/07 09:20:15;;;;;;;0.10;0.10;;;8.90;99.90;12.80;163505.00;;;;4971168;28;20201;-72
2023/01/07 09:22:44;;;;;;;0.10;0.10;;;9.00;99.90;12.80;163505.00;;;;4970750;28;20211;-73
2023/01/07 09:25:12;;;;;;;0.10;0.10;;;9.00;99.90;12.80;163505.00;;;;4976430;28;20228;-73
2023/01/07 09:27:41;;;;;;;0.10;0.10;;;9.00;99.90;12.80;163505.00;;;;4972069;28;20224;-73
2023/01/07 09:30:10;;;;;;;0.10;0.10;;;9.00;99.90;12.80;163505.00;;;;4971634;28;20208;-73
2023/01/07 09:32:38;;;;;;;0.10;0.10;;;9.00;99.90;12.80;163505.00;;;;4974653;28;20272;-73
2023/01/07 09:35:08;;;;;;;0.10;0.10;;;9.10;99.90;12.80;163505.00;;;;4971205;28;20240;-73
2023/01/07 09:37:37;;;;;;;0.10;0.10;;;9.10;99.90;12.80;163505.00;;;;4970021;28;20729;-73
2023/01/07 09:40:08;;;;;;;0.10;0.10;;;9.10;99.90;12.80;163505.00;;;;4969458;28;20600;-73
2023/01/07 09:42:48;;;;;;;0.10;0.10;;;9.10;99.90;12.80;163505.00;;;;4972722;28;20205;-73
2023/01/07 09:45:22;;;;;;;0.10;0.10;;;9.10;99.90;12.80;163505.00;;;;4970092;28;20251;-73
2023/01/07 09:47:56;;;;;;;0.10;0.10;;;9.20;99.90;12.80;163505.00;;;;4968361;28;20614;-74
2023/01/07 09:50:42;;;;;;;0.10;0.10;;;9.20;99.90;12.80;163505.00;;;;4979195;28;20197;-73
2023/01/07 09:53:17;;;;;;;0.10;0.10;;;9.30;99.90;12.80;163505.00;;;;4975470;28;20260;-73
2023/01/07 09:55:51;;;;;;;0.10;0.10;;;9.30;99.90;12.80;163505.00;;;;4977261;28;20200;-73
2023/01/07 09:58:42;;;;;;;0.10;0.10;;;9.30;99.90;12.80;163505.00;;;;4975060;28;20599;-73
2023/01/07 10:01:26;;;;;;;0.10;0.10;;;9.30;99.90;12.80;163505.00;;;;4974288;28;20655;-73
2023/01/07 10:04:10;;;;;;;0.10;0.10;;;9.30;99.90;12.80;163505.00;;;;4975093;28;20193;-73
2023/01/07 10:06:50;;;;;;;0.10;0.10;;;9.30;99.90;12.80;163505.00;;;;4974201;28;20193;-73
2023/01/07 10:09:34;;;;;;;0.10;0.10;;;9.30;99.90;12.80;163505.00;;;;4972972;28;20216;-73
2023/01/07 10:12:16;;;;;;;0.10;0.10;;;9.30;99.90;12.80;163505.00;;;;4972124;28;20212;-73
2023/01/07 10:15:11;;;;;;;0.10;0.10;;;9.30;99.90;12.80;163505.00;;;;4969885;28;20209;-73
2023/01/07 10:18:05;;;;;;;0.10;0.10;;;9.20;99.90;12.80;163505.00;;;;4969049;28;20225;-73
2023/01/07 10:20:43;;;;;;;0.10;0.10;;;9.20;99.90;12.80;163505.00;;;;4968249;28;20209;-73
2023/01/07 10:23:20;;;;;;;0.10;0.10;;;9.10;99.90;12.80;163505.00;;;;4974563;28;20271;-73
2023/01/07 10:25:52;;;;;;;0.10;0.10;;;9.10;99.90;12.80;163505.00;;;;4965163;28;20701;-73
2023/01/07 10:28:27;;;;;;;0.10;0.10;;;9.20;99.90;12.80;163505.00;;;;4972649;28;20303;-73
2023/01/07 10:30:56;;;;;;;0.10;0.10;;;9.20;99.90;12.80;163505.00;;;;4966184;28;20201;-73
2023/01/07 10:33:28;;;;;;;0.10;0.10;;;9.20;99.90;12.80;163505.00;;;;4967233;28;20240;-73
2023/01/07 10:36:06;;;;;;;0.10;0.10;;;9.20;99.90;12.80;163505.00;;;;4971305;28;20547;-75
2023/01/07 10:38:42;;;;;;;0.10;0.10;;;9.20;99.90;12.80;163505.00;;;;4975616;28;20243;-73
2023/01/07 10:41:17;;;;;;;0.10;0.10;;;9.30;99.90;12.80;163505.00;;;;4973939;28;20259;-73
2023/01/07 10:44:07;;;;;;;0.10;0.10;;;9.30;99.90;12.80;163505.00;;;;4973572;28;20201;-74
2023/01/07 10:46:59;;;;;;;0.10;0.10;;;9.30;99.90;12.80;163505.00;;;;4975626;28;20248;-74
2023/01/07 10:49:56;;;;;;;0.10;0.10;;;9.30;99.90;12.80;163505.00;;;;5016896;23;20303;-71
2023/01/07 10:52:39;;;;;;;0.10;0.10;;;9.30;99.90;12.80;163505.00;;;;4988122;28;20260;-71
2023/01/07 10:55:34;;;;;;;0.10;0.10;;;9.30;99.90;12.80;163505.00;;;;4993892;28;20212;-71
2023/01/07 10:58:03;;;;;;;0.10;0.10;;;9.40;99.90;12.80;163505.00;;;;5001644;28;20274;-70
2023/01/07 11:00:32;;;;;;;0.10;0.10;;;9.40;99.90;12.80;163505.00;;;;5008824;28;20210;-71
2023/01/07 11:03:00;;;;;;;0.10;0.10;;;9.40;99.90;12.80;163505.00;;;;5018005;28;20192;-72
2023/01/07 11:05:37;;;;;;;0.10;0.10;;;9.40;99.90;12.80;163505.00;;;;5011906;28;20209;-70
2023/01/07 11:08:13;;;;;;;0.10;0.10;;;9.40;99.90;12.80;163505.00;;;;5010385;28;20230;-71
2023/01/07 11:10:42;;;;;;;0.10;0.10;;;9.50;99.90;12.80;163505.00;;;;4999236;28;20206;-70
2023/01/07 11:13:18;;;;;;;0.10;0.10;;;9.50;99.90;12.80;163505.00;;;;5001251;28;20204;-70
2023/01/07 11:15:53;;;;;;;0.10;0.10;;;9.50;99.90;12.80;163505.00;;;;5002165;28;20563;-70
2023/01/07 11:18:25;;;;;;;0.10;0.10;;;9.50;99.90;12.80;163505.00;;;;5005100;28;20220;-70